Hawaiian Chieftain — WDC8751 — position and weather

sailwx.info

Track history (hours):
 
Tides and Currents Weather Stations Pressure Air Temp Water Temp Dewpoint Dewpoint Depression Visibility Wind Speed Wind Dir Waves Ship Positions

Hawaiian Chieftain (United States)

Operated briefly as "Spirt of Larinda". When she sailed from Sausalito, California, callsign was WAA7737.

Ship's website: http://www.historicalseaport.org/HawaiianChieftain.htm

Owner: GRAYS HARBOR HISTORICAL SEAPORT AUTHORITY, ABERDEEN, WA. More information available from US FCC via Universal Licensing System and Coast Guard Vessel Documentation Center.

Last reported at 2017-Mar-16 22:33 UTC. Time now 2017-Mar-22 22:12 UTC.
Position N 37°37' W 122°17'.

Length 31 m.

Type: Sailing vessel. MMSI: 367092520.

Date/timePositionNaut miles runAvg speedWind from/ knotsBaromVisibWave heightAir tempDewpointWater temp
2017-Mar-16 22:33N 37°37' W 122°17'4 4.5
2017-Mar-16 21:33N 37°40' W 122°21'2 1.6
2017-Mar-16 20:33N 37°42' W 122°21'5 5.3
2017-Mar-16 19:33N 37°47' W 122°23'4 4.2
2017-Mar-16 18:33N 37°48' W 122°18'1 1.1
2017-Mar-16 17:31N 37°48' W 122°17'0 0.0
2017-Mar-16 16:28N 37°48' W 122°17'0 0.1
2017-Mar-16 13:16N 37°48' W 122°17'0 0.0
2017-Mar-16 12:14N 37°48' W 122°17'0 0.0
2017-Mar-16 11:28N 37°48' W 122°17'0 0.0
2017-Mar-16 10:28N 37°48' W 122°17'0 0.0
2017-Mar-16 09:32N 37°48' W 122°17'0 0.0
2017-Mar-16 08:33N 37°48' W 122°17'0 0.1
2017-Mar-16 07:33N 37°48' W 122°17'0 0.0
2017-Mar-15 12:32N 37°48' W 122°17'0 0.0
2017-Mar-15 10:33N 37°48' W 122°17'0 0.0
2017-Mar-15 09:33N 37°48' W 122°17'0 0.0
2017-Mar-15 08:31N 37°48' W 122°17'0 0.0
2017-Mar-15 07:29N 37°48' W 122°17'0 0.0
2017-Mar-15 06:25N 37°48' W 122°17'0 0.0
2017-Mar-15 05:05N 37°48' W 122°17'0 0.0
2017-Mar-15 04:28N 37°48' W 122°17'0 0.0
2017-Mar-15 03:31N 37°48' W 122°17'0 0.0
2017-Mar-15 02:10N 37°48' W 122°17'0 0.0
2017-Mar-15 01:28N 37°48' W 122°17'0 0.0
2017-Mar-15 00:25N 37°48' W 122°17'0 0.0
2017-Mar-14 23:26N 37°48' W 122°17'0 0.0
2017-Mar-14 22:33N 37°48' W 122°17'4 3.6
2017-Mar-14 21:33N 37°46' W 122°21'0 0.5
2017-Mar-14 20:33N 37°47' W 122°21'3 1.5
2017-Mar-14 18:13N 37°48' W 122°17'0 0.0
2017-Mar-14 17:16N 37°48' W 122°17'0 0.0
2017-Mar-14 16:33N 37°48' W 122°17'0 0.0
2017-Mar-14 14:04N 37°48' W 122°17'0 0.0
2017-Mar-14 12:28N 37°48' W 122°17'0 0.0
2017-Mar-14 11:33N 37°48' W 122°17'0 0.0
2017-Mar-14 10:33N 37°48' W 122°17'0 0.0
2017-Mar-14 09:33N 37°48' W 122°17'0 0.0
2017-Mar-14 08:33N 37°48' W 122°17'0 0.0
2017-Mar-14 07:31N 37°48' W 122°17'0 0.0
2017-Mar-14 06:28N 37°48' W 122°17'0 0.0
2017-Mar-14 05:30N 37°48' W 122°17'0 0.0
2017-Mar-14 03:19N 37°48' W 122°17'0 0.0
2017-Mar-14 01:20N 37°48' W 122°17'0 0.0
2017-Mar-14 00:32N 37°48' W 122°17'2 2.3
2017-Mar-13 23:33N 37°48' W 122°20'3 2.7
2017-Mar-13 22:33N 37°47' W 122°23'1 1.0
2017-Mar-13 21:33N 37°47' W 122°22'1 0.8
2017-Mar-13 20:33N 37°46' W 122°22'1 0.6
2017-Mar-13 19:32N 37°46' W 122°21'0 0.2
2017-Mar-13 18:33N 37°46' W 122°21'4 3.7
2017-Mar-13 17:27N 37°48' W 122°17'0 0.0
2017-Mar-13 16:32N 37°48' W 122°17'0 0.0
2017-Mar-13 15:26N 37°48' W 122°17'0 0.0
2017-Mar-13 13:28N 37°48' W 122°17'0 0.0
2017-Mar-13 12:31N 37°48' W 122°17'0 0.0
2017-Mar-13 11:33N 37°48' W 122°17'0 0.0
2017-Mar-13 10:33N 37°48' W 122°17'0 0.0
2017-Mar-13 09:33N 37°48' W 122°17'0 0.0
2017-Mar-13 08:27N 37°48' W 122°17'0 0.0
2017-Mar-13 07:32N 37°48' W 122°17'0 0.0
2017-Mar-13 06:31N 37°48' W 122°17'0 0.0
2017-Mar-13 05:32N 37°48' W 122°17'0 0.0
2017-Mar-13 04:32N 37°48' W 122°17'0 0.0
2017-Mar-13 03:30N 37°48' W 122°17'0 0.0
2017-Mar-13 02:30N 37°48' W 122°17'0 0.0
2017-Mar-13 01:30N 37°48' W 122°17'0 0.0
2017-Mar-13 00:03N 37°48' W 122°17'1 2.2
2017-Mar-12 23:33N 37°47' W 122°18'2 2.5
2017-Mar-12 22:33N 37°48' W 122°21'2 1.8
2017-Mar-12 21:33N 37°48' W 122°19'2 1.7
2017-Mar-12 20:32N 37°48' W 122°17'2 2.0
2017-Mar-12 19:33N 37°48' W 122°19'2 1.8
2017-Mar-12 18:33N 37°47' W 122°21'2 1.5
2017-Mar-12 17:33N 37°48' W 122°20'3 2.6
2017-Mar-12 16:32N 37°48' W 122°17'0 0.0
2017-Mar-12 15:24N 37°48' W 122°17'0 0.0
2017-Mar-12 14:28N 37°48' W 122°17'0 0.0
2017-Mar-12 13:32N 37°48' W 122°17'0 0.0
2017-Mar-12 12:22N 37°48' W 122°17'0 0.0
2017-Mar-12 11:33N 37°48' W 122°17'0 0.0
2017-Mar-12 10:33N 37°48' W 122°17'0 0.0
2017-Mar-12 09:32N 37°48' W 122°17'0 0.0
2017-Mar-12 08:31N 37°48' W 122°17'0 0.0
2017-Mar-12 07:32N 37°48' W 122°17'0 0.0
2017-Mar-12 06:31N 37°48' W 122°17'0 0.0
2017-Mar-12 05:32N 37°48' W 122°17'0 0.0
2017-Mar-12 04:28N 37°48' W 122°17'0 0.0
2017-Mar-12 03:28N 37°48' W 122°17'0 0.0
2017-Mar-12 02:10N 37°48' W 122°17'0 0.0
2017-Mar-12 01:20N 37°48' W 122°17'0 0.3
2017-Mar-12 00:32N 37°47' W 122°16'4 3.7
2017-Mar-11 23:33N 37°48' W 122°21'1 1.2
2017-Mar-11 22:33N 37°48' W 122°20'2 2.2
2017-Mar-11 21:29N 37°48' W 122°17'0 0.0
2017-Mar-11 20:31N 37°48' W 122°17'0 0.0
2017-Mar-11 19:25N 37°48' W 122°17'0 0.0
2017-Mar-11 18:26N 37°48' W 122°17'0 0.0
2017-Mar-11 17:28N 37°48' W 122°17'0 0.0
2017-Mar-11 16:04N 37°48' W 122°17'0 0.0
2017-Mar-11 15:29N 37°48' W 122°17'0 0.0
2017-Mar-11 14:22N 37°48' W 122°17'0 0.0
2017-Mar-11 13:33N 37°48' W 122°17'0 0.0
2017-Mar-11 12:32N 37°48' W 122°17'0 0.0
2017-Mar-11 11:32N 37°48' W 122°17'0 0.0
2017-Mar-11 10:32N 37°48' W 122°17'0 0.0
2017-Mar-11 09:32N 37°48' W 122°17'0 0.0
2017-Mar-11 08:32N 37°48' W 122°17'0 0.0
2017-Mar-11 07:33N 37°48' W 122°17'0 0.0
2017-Mar-11 06:23N 37°48' W 122°17'0 0.0
2017-Mar-11 05:31N 37°48' W 122°17'0 0.0
2017-Mar-11 04:31N 37°48' W 122°17'0 0.0
2017-Mar-11 03:31N 37°48' W 122°17'0 0.0
2017-Mar-11 02:27N 37°48' W 122°17'0 0.0
2017-Mar-11 01:17N 37°48' W 122°17'0 0.0
2017-Mar-10 22:25N 37°48' W 122°17'0 0.0
2017-Mar-10 21:32N 37°48' W 122°17'2 1.0
2017-Mar-10 19:33N 37°48' W 122°19'2 2.1
2017-Mar-10 18:33N 37°47' W 122°22'4 3.5
2017-Mar-10 17:33N 37°48' W 122°17'1 0.3
2017-Mar-10 15:19N 37°48' W 122°17'0 0.0
2017-Mar-10 14:28N 37°48' W 122°17'0 0.0
2017-Mar-10 13:28N 37°48' W 122°17'0 0.0
2017-Mar-10 12:20N 37°48' W 122°17'0 0.0
2017-Mar-10 10:31N 37°48' W 122°17'0 0.0
2017-Mar-10 09:28N 37°48' W 122°17'0 0.0
2017-Mar-10 08:32N 37°48' W 122°17'0 0.0
2017-Mar-10 07:29N 37°48' W 122°17'0 0.0
2017-Mar-10 06:23N 37°48' W 122°17'0 0.0
2017-Mar-10 02:20N 37°48' W 122°17'0 0.0
2017-Mar-10 00:28N 37°48' W 122°17'0 0.0
2017-Mar-09 23:24N 37°48' W 122°17'4 4.5
2017-Mar-09 22:33N 37°47' W 122°21'0 0.5
2017-Mar-09 21:33N 37°48' W 122°22'4 4.1
2017-Mar-09 20:33N 37°48' W 122°17'2 1.9
2017-Mar-09 19:32N 37°48' W 122°19'2 1.8
2017-Mar-09 18:33N 37°47' W 122°21'2 1.6
2017-Mar-09 17:33N 37°48' W 122°19'2 2.2
2017-Mar-09 16:33N 37°48' W 122°17'0 0.0
2017-Mar-09 14:31N 37°48' W 122°17'0 0.0
2017-Mar-09 13:30N 37°48' W 122°17'0 0.0
2017-Mar-09 12:26N 37°48' W 122°17'0 0.0
2017-Mar-09 11:29N 37°48' W 122°17'0 0.0
2017-Mar-09 09:30N 37°48' W 122°17'0 0.1
2017-Mar-09 08:33N 37°48' W 122°17'0 0.1
2017-Mar-09 07:29N 37°48' W 122°17'0 0.0
2017-Mar-09 06:30N 37°48' W 122°17'0 0.0
2017-Mar-09 05:24N 37°48' W 122°17'0 0.0
2017-Mar-09 02:11N 37°48' W 122°17'0 0.0
2017-Mar-08 20:10N 37°48' W 122°17'3 5.1
2017-Mar-08 19:32N 37°48' W 122°21'1 0.6
2017-Mar-08 18:33N 37°48' W 122°21'1 0.9
2017-Mar-08 17:32N 37°48' W 122°20'3 2.5
2017-Mar-08 16:31N 37°48' W 122°17'0 0.0
2017-Mar-08 15:33N 37°48' W 122°17'0 0.0
2017-Mar-08 14:33N 37°48' W 122°17'0 0.0
2017-Mar-08 13:32N 37°48' W 122°17'0 0.0
2017-Mar-08 12:32N 37°48' W 122°17'0 0.0
2017-Mar-08 11:22N 37°48' W 122°17'0 0.0
2017-Mar-08 10:09N 37°48' W 122°17'0 0.0
2017-Mar-08 09:31N 37°48' W 122°17'0 0.0
2017-Mar-08 08:29N 37°48' W 122°17'0 0.0
2017-Mar-08 07:13N 37°48' W 122°17'0 0.0
2017-Mar-08 06:23N 37°48' W 122°17'0 0.0
2017-Mar-08 05:33N 37°48' W 122°17'0 0.0
2017-Mar-08 04:33N 37°48' W 122°17'0 0.0
2017-Mar-08 03:33N 37°48' W 122°17'0 0.0
2017-Mar-08 02:08N 37°48' W 122°17'0 0.0
2017-Mar-08 01:28N 37°48' W 122°17'0 0.0
2017-Mar-07 23:06N 37°48' W 122°17'1 1.0
2017-Mar-07 22:33N 37°48' W 122°17'5 4.6
2017-Mar-07 21:33N 37°47' W 122°23'4 3.8
2017-Mar-07 20:33N 37°48' W 122°19'1 1.2
2017-Mar-07 19:33N 37°48' W 122°20'2 1.6
2017-Mar-07 18:33N 37°47' W 122°22'1 1.4
2017-Mar-07 17:33N 37°48' W 122°20'3 2.8
2017-Mar-07 16:33N 37°48' W 122°17'0 0.0
2017-Mar-07 15:29N 37°48' W 122°17'0 0.0
2017-Mar-07 14:32N 37°48' W 122°17'0 0.0
2017-Mar-07 13:28N 37°48' W 122°17'0 0.0
2017-Mar-07 12:28N 37°48' W 122°17'0 0.0
2017-Mar-07 11:31N 37°48' W 122°17'0 0.0
2017-Mar-07 10:31N 37°48' W 122°17'0 0.0
2017-Mar-07 09:31N 37°48' W 122°17'0 0.0
2017-Mar-07 08:21N 37°48' W 122°17'0 0.0
2017-Mar-07 07:29N 37°48' W 122°17'0 0.0
2017-Mar-07 06:33N 37°48' W 122°17'0 0.0
2017-Mar-07 05:31N 37°48' W 122°17'0 0.0
2017-Mar-07 04:19N 37°48' W 122°17'0 0.0
2017-Mar-07 03:24N 37°48' W 122°17'0 0.0
2017-Mar-07 02:05N 37°48' W 122°17'0 0.0
2017-Mar-06 23:13N 37°48' W 122°17'  
Track history (hours):
 
Tides and Currents Weather Stations Pressure Air Temp Water Temp Dewpoint Dewpoint Depression Visibility Wind Speed Wind Dir Waves Ship Positions

Hawaiian Chieftain (United States)

Operated briefly as "Spirt of Larinda". When she sailed from Sausalito, California, callsign was WAA7737.

Ship's website: http://www.historicalseaport.org/HawaiianChieftain.htm

Owner: GRAYS HARBOR HISTORICAL SEAPORT AUTHORITY, ABERDEEN, WA. More information available from US FCC via Universal Licensing System and Coast Guard Vessel Documentation Center.

Last reported at 2017-Mar-16 22:33 UTC. Time now 2017-Mar-22 22:12 UTC.
Position N 37°37' W 122°17'.

Length 31 m.

Type: Sailing vessel. MMSI: 367092520.

Date/timePositionNaut miles runAvg speedWind from/ knotsBaromVisibWave heightAir tempDewpointWater temp
2017-Mar-16 22:33N 37°37' W 122°17'4 4.5
2017-Mar-16 21:33N 37°40' W 122°21'2 1.6
2017-Mar-16 20:33N 37°42' W 122°21'5 5.3
2017-Mar-16 19:33N 37°47' W 122°23'4 4.2
2017-Mar-16 18:33N 37°48' W 122°18'1 1.1
2017-Mar-16 17:31N 37°48' W 122°17'0 0.0
2017-Mar-16 16:28N 37°48' W 122°17'0 0.1
2017-Mar-16 13:16N 37°48' W 122°17'0 0.0
2017-Mar-16 12:14N 37°48' W 122°17'0 0.0
2017-Mar-16 11:28N 37°48' W 122°17'0 0.0
2017-Mar-16 10:28N 37°48' W 122°17'0 0.0
2017-Mar-16 09:32N 37°48' W 122°17'0 0.0
2017-Mar-16 08:33N 37°48' W 122°17'0 0.1
2017-Mar-16 07:33N 37°48' W 122°17'0 0.0
2017-Mar-15 12:32N 37°48' W 122°17'0 0.0
2017-Mar-15 10:33N 37°48' W 122°17'0 0.0
2017-Mar-15 09:33N 37°48' W 122°17'0 0.0
2017-Mar-15 08:31N 37°48' W 122°17'0 0.0
2017-Mar-15 07:29N 37°48' W 122°17'0 0.0
2017-Mar-15 06:25N 37°48' W 122°17'0 0.0
2017-Mar-15 05:05N 37°48' W 122°17'0 0.0
2017-Mar-15 04:28N 37°48' W 122°17'0 0.0
2017-Mar-15 03:31N 37°48' W 122°17'0 0.0
2017-Mar-15 02:10N 37°48' W 122°17'0 0.0
2017-Mar-15 01:28N 37°48' W 122°17'0 0.0
2017-Mar-15 00:25N 37°48' W 122°17'0 0.0
2017-Mar-14 23:26N 37°48' W 122°17'0 0.0
2017-Mar-14 22:33N 37°48' W 122°17'4 3.6
2017-Mar-14 21:33N 37°46' W 122°21'0 0.5
2017-Mar-14 20:33N 37°47' W 122°21'3 1.5
2017-Mar-14 18:13N 37°48' W 122°17'0 0.0
2017-Mar-14 17:16N 37°48' W 122°17'0 0.0
2017-Mar-14 16:33N 37°48' W 122°17'0 0.0
2017-Mar-14 14:04N 37°48' W 122°17'0 0.0
2017-Mar-14 12:28N 37°48' W 122°17'0 0.0
2017-Mar-14 11:33N 37°48' W 122°17'0 0.0
2017-Mar-14 10:33N 37°48' W 122°17'0 0.0
2017-Mar-14 09:33N 37°48' W 122°17'0 0.0
2017-Mar-14 08:33N 37°48' W 122°17'0 0.0
2017-Mar-14 07:31N 37°48' W 122°17'0 0.0
2017-Mar-14 06:28N 37°48' W 122°17'0 0.0
2017-Mar-14 05:30N 37°48' W 122°17'0 0.0
2017-Mar-14 03:19N 37°48' W 122°17'0 0.0
2017-Mar-14 01:20N 37°48' W 122°17'0 0.0
2017-Mar-14 00:32N 37°48' W 122°17'2 2.3
2017-Mar-13 23:33N 37°48' W 122°20'3 2.7
2017-Mar-13 22:33N 37°47' W 122°23'1 1.0
2017-Mar-13 21:33N 37°47' W 122°22'1 0.8
2017-Mar-13 20:33N 37°46' W 122°22'1 0.6
2017-Mar-13 19:32N 37°46' W 122°21'0 0.2
2017-Mar-13 18:33N 37°46' W 122°21'4 3.7
2017-Mar-13 17:27N 37°48' W 122°17'0 0.0
2017-Mar-13 16:32N 37°48' W 122°17'0 0.0
2017-Mar-13 15:26N 37°48' W 122°17'0 0.0
2017-Mar-13 13:28N 37°48' W 122°17'0 0.0
2017-Mar-13 12:31N 37°48' W 122°17'0 0.0
2017-Mar-13 11:33N 37°48' W 122°17'0 0.0
2017-Mar-13 10:33N 37°48' W 122°17'0 0.0
2017-Mar-13 09:33N 37°48' W 122°17'0 0.0
2017-Mar-13 08:27N 37°48' W 122°17'0 0.0
2017-Mar-13 07:32N 37°48' W 122°17'0 0.0
2017-Mar-13 06:31N 37°48' W 122°17'0 0.0
2017-Mar-13 05:32N 37°48' W 122°17'0 0.0
2017-Mar-13 04:32N 37°48' W 122°17'0 0.0
2017-Mar-13 03:30N 37°48' W 122°17'0 0.0
2017-Mar-13 02:30N 37°48' W 122°17'0 0.0
2017-Mar-13 01:30N 37°48' W 122°17'0 0.0
2017-Mar-13 00:03N 37°48' W 122°17'1 2.2
2017-Mar-12 23:33N 37°47' W 122°18'2 2.5
2017-Mar-12 22:33N 37°48' W 122°21'2 1.8
2017-Mar-12 21:33N 37°48' W 122°19'2 1.7
2017-Mar-12 20:32N 37°48' W 122°17'2 2.0
2017-Mar-12 19:33N 37°48' W 122°19'2 1.8
2017-Mar-12 18:33N 37°47' W 122°21'2 1.5
2017-Mar-12 17:33N 37°48' W 122°20'3 2.6
2017-Mar-12 16:32N 37°48' W 122°17'0 0.0
2017-Mar-12 15:24N 37°48' W 122°17'0 0.0
2017-Mar-12 14:28N 37°48' W 122°17'0 0.0
2017-Mar-12 13:32N 37°48' W 122°17'0 0.0
2017-Mar-12 12:22N 37°48' W 122°17'0 0.0
2017-Mar-12 11:33N 37°48' W 122°17'0 0.0
2017-Mar-12 10:33N 37°48' W 122°17'0 0.0
2017-Mar-12 09:32N 37°48' W 122°17'0 0.0
2017-Mar-12 08:31N 37°48' W 122°17'0 0.0
2017-Mar-12 07:32N 37°48' W 122°17'0 0.0
2017-Mar-12 06:31N 37°48' W 122°17'0 0.0
2017-Mar-12 05:32N 37°48' W 122°17'0 0.0
2017-Mar-12 04:28N 37°48' W 122°17'0 0.0
2017-Mar-12 03:28N 37°48' W 122°17'0 0.0
2017-Mar-12 02:10N 37°48' W 122°17'0 0.0
2017-Mar-12 01:20N 37°48' W 122°17'0 0.3
2017-Mar-12 00:32N 37°47' W 122°16'4 3.7
2017-Mar-11 23:33N 37°48' W 122°21'1 1.2
2017-Mar-11 22:33N 37°48' W 122°20'2 2.2
2017-Mar-11 21:29N 37°48' W 122°17'0 0.0
2017-Mar-11 20:31N 37°48' W 122°17'0 0.0
2017-Mar-11 19:25N 37°48' W 122°17'0 0.0
2017-Mar-11 18:26N 37°48' W 122°17'0 0.0
2017-Mar-11 17:28N 37°48' W 122°17'0 0.0
2017-Mar-11 16:04N 37°48' W 122°17'0 0.0
2017-Mar-11 15:29N 37°48' W 122°17'0 0.0
2017-Mar-11 14:22N 37°48' W 122°17'0 0.0
2017-Mar-11 13:33N 37°48' W 122°17'0 0.0
2017-Mar-11 12:32N 37°48' W 122°17'0 0.0
2017-Mar-11 11:32N 37°48' W 122°17'0 0.0
2017-Mar-11 10:32N 37°48' W 122°17'0 0.0
2017-Mar-11 09:32N 37°48' W 122°17'0 0.0
2017-Mar-11 08:32N 37°48' W 122°17'0 0.0
2017-Mar-11 07:33N 37°48' W 122°17'0 0.0
2017-Mar-11 06:23N 37°48' W 122°17'0 0.0
2017-Mar-11 05:31N 37°48' W 122°17'0 0.0
2017-Mar-11 04:31N 37°48' W 122°17'0 0.0
2017-Mar-11 03:31N 37°48' W 122°17'0 0.0
2017-Mar-11 02:27N 37°48' W 122°17'0 0.0
2017-Mar-11 01:17N 37°48' W 122°17'0 0.0
2017-Mar-10 22:25N 37°48' W 122°17'0 0.0
2017-Mar-10 21:32N 37°48' W 122°17'2 1.0
2017-Mar-10 19:33N 37°48' W 122°19'2 2.1
2017-Mar-10 18:33N 37°47' W 122°22'4 3.5
2017-Mar-10 17:33N 37°48' W 122°17'1 0.3
2017-Mar-10 15:19N 37°48' W 122°17'0 0.0
2017-Mar-10 14:28N 37°48' W 122°17'0 0.0
2017-Mar-10 13:28N 37°48' W 122°17'0 0.0
2017-Mar-10 12:20N 37°48' W 122°17'0 0.0
2017-Mar-10 10:31N 37°48' W 122°17'0 0.0
2017-Mar-10 09:28N 37°48' W 122°17'0 0.0
2017-Mar-10 08:32N 37°48' W 122°17'0 0.0
2017-Mar-10 07:29N 37°48' W 122°17'0 0.0
2017-Mar-10 06:23N 37°48' W 122°17'0 0.0
2017-Mar-10 02:20N 37°48' W 122°17'0 0.0
2017-Mar-10 00:28N 37°48' W 122°17'0 0.0
2017-Mar-09 23:24N 37°48' W 122°17'4 4.5
2017-Mar-09 22:33N 37°47' W 122°21'0 0.5
2017-Mar-09 21:33N 37°48' W 122°22'4 4.1
2017-Mar-09 20:33N 37°48' W 122°17'2 1.9
2017-Mar-09 19:32N 37°48' W 122°19'2 1.8
2017-Mar-09 18:33N 37°47' W 122°21'2 1.6
2017-Mar-09 17:33N 37°48' W 122°19'2 2.2
2017-Mar-09 16:33N 37°48' W 122°17'0 0.0
2017-Mar-09 14:31N 37°48' W 122°17'0 0.0
2017-Mar-09 13:30N 37°48' W 122°17'0 0.0
2017-Mar-09 12:26N 37°48' W 122°17'0 0.0
2017-Mar-09 11:29N 37°48' W 122°17'0 0.0
2017-Mar-09 09:30N 37°48' W 122°17'0 0.1
2017-Mar-09 08:33N 37°48' W 122°17'0 0.1
2017-Mar-09 07:29N 37°48' W 122°17'0 0.0
2017-Mar-09 06:30N 37°48' W 122°17'0 0.0
2017-Mar-09 05:24N 37°48' W 122°17'0 0.0
2017-Mar-09 02:11N 37°48' W 122°17'0 0.0
2017-Mar-08 20:10N 37°48' W 122°17'3 5.1
2017-Mar-08 19:32N 37°48' W 122°21'1 0.6
2017-Mar-08 18:33N 37°48' W 122°21'1 0.9
2017-Mar-08 17:32N 37°48' W 122°20'3 2.5
2017-Mar-08 16:31N 37°48' W 122°17'0 0.0
2017-Mar-08 15:33N 37°48' W 122°17'0 0.0
2017-Mar-08 14:33N 37°48' W 122°17'0 0.0
2017-Mar-08 13:32N 37°48' W 122°17'0 0.0
2017-Mar-08 12:32N 37°48' W 122°17'0 0.0
2017-Mar-08 11:22N 37°48' W 122°17'0 0.0
2017-Mar-08 10:09N 37°48' W 122°17'0 0.0
2017-Mar-08 09:31N 37°48' W 122°17'0 0.0
2017-Mar-08 08:29N 37°48' W 122°17'0 0.0
2017-Mar-08 07:13N 37°48' W 122°17'0 0.0
2017-Mar-08 06:23N 37°48' W 122°17'0 0.0
2017-Mar-08 05:33N 37°48' W 122°17'0 0.0
2017-Mar-08 04:33N 37°48' W 122°17'0 0.0
2017-Mar-08 03:33N 37°48' W 122°17'0 0.0
2017-Mar-08 02:08N 37°48' W 122°17'0 0.0
2017-Mar-08 01:28N 37°48' W 122°17'0 0.0
2017-Mar-07 23:06N 37°48' W 122°17'1 1.0
2017-Mar-07 22:33N 37°48' W 122°17'5 4.6
2017-Mar-07 21:33N 37°47' W 122°23'4 3.8
2017-Mar-07 20:33N 37°48' W 122°19'1 1.2
2017-Mar-07 19:33N 37°48' W 122°20'2 1.6
2017-Mar-07 18:33N 37°47' W 122°22'1 1.4
2017-Mar-07 17:33N 37°48' W 122°20'3 2.8
2017-Mar-07 16:33N 37°48' W 122°17'0 0.0
2017-Mar-07 15:29N 37°48' W 122°17'0 0.0
2017-Mar-07 14:32N 37°48' W 122°17'0 0.0
2017-Mar-07 13:28N 37°48' W 122°17'0 0.0
2017-Mar-07 12:28N 37°48' W 122°17'0 0.0
2017-Mar-07 11:31N 37°48' W 122°17'0 0.0
2017-Mar-07 10:31N 37°48' W 122°17'0 0.0
2017-Mar-07 09:31N 37°48' W 122°17'0 0.0
2017-Mar-07 08:21N 37°48' W 122°17'0 0.0
2017-Mar-07 07:29N 37°48' W 122°17'0 0.0
2017-Mar-07 06:33N 37°48' W 122°17'0 0.0
2017-Mar-07 05:31N 37°48' W 122°17'0 0.0
2017-Mar-07 04:19N 37°48' W 122°17'0 0.0
2017-Mar-07 03:24N 37°48' W 122°17'0 0.0
2017-Mar-07 02:05N 37°48' W 122°17'0 0.0
2017-Mar-06 23:13N 37°48' W 122°17'  

Dump ship's entire track history